createdAt,value
2019-02-23T00:01:49.715Z,2.27
2019-02-23T00:04:18.422Z,2.00
2019-02-23T00:06:47.241Z,2.00
2019-02-23T00:09:16.418Z,1.87
2019-02-23T00:11:45.785Z,1.70
2019-02-23T00:14:14.540Z,1.30
2019-02-23T00:16:43.960Z,1.90
2019-02-23T00:19:24.218Z,1.50
2019-02-23T00:21:43.745Z,1.57
2019-02-23T00:24:13.108Z,2.00
2019-02-23T00:26:41.898Z,1.60
2019-02-23T00:29:10.627Z,1.67
2019-02-23T00:31:39.424Z,1.60
2019-02-23T00:34:08.149Z,1.83
2019-02-23T00:36:36.877Z,1.87
2019-02-23T00:39:05.994Z,1.63
2019-02-23T00:41:34.784Z,1.77
2019-02-23T00:44:03.550Z,1.30
2019-02-23T00:46:32.410Z,2.00
2019-02-23T00:49:01.147Z,1.57
2019-02-23T00:51:29.981Z,1.73
2019-02-23T00:53:58.771Z,1.83
2019-02-23T00:56:27.558Z,1.77
2019-02-23T00:58:56.411Z,1.83
2019-02-23T01:01:25.176Z,1.80
2019-02-23T01:03:53.997Z,1.70
2019-02-23T01:06:22.780Z,1.83
2019-02-23T01:08:51.972Z,1.60
2019-02-23T01:11:20.701Z,1.73
2019-02-23T01:13:49.527Z,1.37
2019-02-23T01:16:18.239Z,2.03
2019-02-23T01:18:46.959Z,1.73
2019-02-23T01:21:15.775Z,2.20
2019-02-23T01:23:44.496Z,1.33
2019-02-23T01:26:13.216Z,1.57
2019-02-23T01:28:42.036Z,1.80
2019-02-23T01:31:13.016Z,1.43
2019-02-23T01:33:41.841Z,1.80
2019-02-23T01:36:10.613Z,1.80
2019-02-23T01:38:39.413Z,1.80
2019-02-23T01:41:08.224Z,1.90
2019-02-23T01:43:37.282Z,1.70
2019-02-23T01:46:06.073Z,1.50
2019-02-23T01:48:34.873Z,2.07
2019-02-23T01:51:03.586Z,1.97
2019-02-23T01:53:32.393Z,1.80
2019-02-23T01:56:01.119Z,1.60
2019-02-23T01:58:29.869Z,2.33
2019-02-23T02:00:58.977Z,2.50
2019-02-23T02:03:27.775Z,1.40
2019-02-23T02:05:56.601Z,1.80
2019-02-23T02:08:25.423Z,1.63
2019-02-23T02:10:54.154Z,1.83
2019-02-23T02:13:22.935Z,2.40
2019-02-23T02:15:54.924Z,1.57
2019-02-23T02:18:24.054Z,2.20
2019-02-23T02:20:52.841Z,2.10
2019-02-23T02:23:21.593Z,2.20
2019-02-23T02:25:50.365Z,2.00
2019-02-23T02:28:19.320Z,1.70
2019-02-23T02:30:48.095Z,1.97
2019-02-23T02:33:16.863Z,2.00
2019-02-23T02:35:45.686Z,1.80
2019-02-23T02:38:14.431Z,1.90
2019-02-23T02:40:43.135Z,1.80
2019-02-23T02:43:11.916Z,2.10
2019-02-23T02:45:40.720Z,1.80
2019-02-23T02:48:09.423Z,1.80
2019-02-23T02:50:38.174Z,2.10
2019-02-23T02:53:06.989Z,2.57
2019-02-23T02:55:35.720Z,1.93
2019-02-23T02:58:04.713Z,1.40
2019-02-23T03:00:33.504Z,1.93
2019-02-23T03:03:02.257Z,1.77
2019-02-23T03:05:31.217Z,1.73
2019-02-23T03:08:00.015Z,1.70
2019-02-23T03:10:28.773Z,2.23
2019-02-23T03:12:57.496Z,1.43
2019-02-23T03:15:26.295Z,2.00
2019-02-23T03:17:55.009Z,2.33
2019-02-23T03:20:35.955Z,2.27
2019-02-23T03:22:54.318Z,1.77
2019-02-23T03:25:23.047Z,1.87
2019-02-23T03:27:51.755Z,1.77
2019-02-23T03:30:20.500Z,1.60
2019-02-23T03:32:49.314Z,1.87
2019-02-23T03:35:18.152Z,1.73
2019-02-23T03:37:46.883Z,2.33
2019-02-23T03:40:15.607Z,1.67
2019-02-23T03:42:44.384Z,2.10
2019-02-23T03:45:13.349Z,2.33
2019-02-23T03:47:42.062Z,1.93
2019-02-23T03:50:10.784Z,1.67
2019-02-23T03:52:39.487Z,1.90
2019-02-23T03:55:08.204Z,1.97
2019-02-23T03:57:36.930Z,1.67
2019-02-23T04:00:06.270Z,1.80
2019-02-23T04:02:35.114Z,2.10
2019-02-23T04:05:03.958Z,2.33
2019-02-23T04:07:32.692Z,1.80
2019-02-23T04:10:01.545Z,1.57
2019-02-23T04:12:30.352Z,2.20
2019-02-23T04:14:59.060Z,2.10
2019-02-23T04:17:27.903Z,1.80
2019-02-23T04:19:56.821Z,2.10
2019-02-23T04:22:25.600Z,1.70
2019-02-23T04:24:54.421Z,2.07
2019-02-23T04:27:23.196Z,2.00
2019-02-23T04:29:52.347Z,2.13
2019-02-23T04:32:21.210Z,2.00
2019-02-23T04:34:50.017Z,1.87
2019-02-23T04:37:18.778Z,1.70
2019-02-23T04:39:47.532Z,1.87
2019-02-23T04:42:16.238Z,2.10
2019-02-23T04:44:46.083Z,2.20
2019-02-23T04:47:14.933Z,1.93
2019-02-23T04:49:48.337Z,1.73
2019-02-23T04:52:17.076Z,2.23
2019-02-23T04:54:45.874Z,2.17
2019-02-23T04:57:14.568Z,2.03
2019-02-23T04:59:43.278Z,2.03
2019-02-23T05:02:12.083Z,2.27
2019-02-23T05:04:40.792Z,1.87
2019-02-23T05:07:09.580Z,1.77
2019-02-23T05:09:38.317Z,1.80
2019-02-23T05:12:07.115Z,1.60
2019-02-23T05:14:35.807Z,1.70
2019-02-23T05:17:04.535Z,1.77
2019-02-23T05:19:33.242Z,1.73
2019-02-23T05:22:02.061Z,1.73
2019-02-23T05:24:30.782Z,2.13
2019-02-23T05:26:59.504Z,2.00
2019-02-23T05:29:28.217Z,2.00
2019-02-23T05:31:56.935Z,2.03
2019-02-23T05:34:25.643Z,2.20
2019-02-23T05:36:54.342Z,1.90
2019-02-23T05:39:23.124Z,2.00
2019-02-23T05:41:52.063Z,1.70
2019-02-23T05:44:20.836Z,2.30
2019-02-23T05:46:49.578Z,2.20
2019-02-23T05:49:18.278Z,2.23
2019-02-23T05:51:49.824Z,1.77
2019-02-23T05:54:18.649Z,1.83
2019-02-23T05:56:47.434Z,2.10
2019-02-23T05:59:16.134Z,2.27
2019-02-23T06:01:44.930Z,2.60
2019-02-23T06:04:13.724Z,2.20
2019-02-23T06:06:42.418Z,2.13
2019-02-23T06:09:11.187Z,1.77
2019-02-23T06:11:42.424Z,2.37
2019-02-23T06:14:11.216Z,2.23
2019-02-23T06:16:40.003Z,2.00
2019-02-23T06:19:08.716Z,2.00
2019-02-23T06:21:37.450Z,2.40
2019-02-23T06:24:06.190Z,2.40
2019-02-23T06:26:36.710Z,1.90
2019-02-23T06:29:05.502Z,2.33
2019-02-23T06:31:34.310Z,1.90
2019-02-23T06:34:12.532Z,2.13
2019-02-23T06:36:33.510Z,2.40
2019-02-23T06:39:02.280Z,2.00
2019-02-23T06:41:30.990Z,2.53
2019-02-23T06:43:59.778Z,2.27
2019-02-23T06:46:28.501Z,2.23
2019-02-23T06:48:57.286Z,2.07
2019-02-23T06:51:26.075Z,2.27
2019-02-23T06:53:54.949Z,2.40
2019-02-23T06:56:23.732Z,2.50
2019-02-23T06:58:52.719Z,2.43
2019-02-23T07:01:21.440Z,2.63
2019-02-23T07:03:50.245Z,2.47
2019-02-23T07:06:19.010Z,3.03
2019-02-23T07:08:47.801Z,2.40
2019-02-23T07:11:17.568Z,3.17
2019-02-23T07:13:46.505Z,2.97
2019-02-23T07:16:15.250Z,2.57
2019-02-23T07:18:44.013Z,3.20
2019-02-23T07:21:12.897Z,3.13
2019-02-23T07:23:41.745Z,2.60
2019-02-23T07:26:10.493Z,2.50
2019-02-23T07:28:41.609Z,3.07
2019-02-23T07:31:10.359Z,2.87
2019-02-23T07:33:39.133Z,3.00
2019-02-23T07:36:08.046Z,3.47
2019-02-23T07:38:36.861Z,3.70
2019-02-23T07:41:05.580Z,3.73
2019-02-23T07:43:37.313Z,3.50
2019-02-23T07:46:06.141Z,3.63
2019-02-23T07:48:34.937Z,3.60
2019-02-23T07:51:03.807Z,3.30
2019-02-23T07:53:32.581Z,3.43
2019-02-23T07:56:01.354Z,3.17
2019-02-23T07:58:30.171Z,3.33
2019-02-23T08:00:59.017Z,3.77
2019-02-23T08:03:27.764Z,3.17
2019-02-23T08:05:56.501Z,3.43
2019-02-23T08:08:25.242Z,3.37
2019-02-23T08:10:54.020Z,3.40
2019-02-23T08:13:22.854Z,3.60
2019-02-23T08:15:51.663Z,3.57
2019-02-23T08:18:20.444Z,4.00
2019-02-23T08:20:49.224Z,3.17
2019-02-23T08:23:17.971Z,3.73
2019-02-23T08:25:46.777Z,3.57
2019-02-23T08:28:15.574Z,2.23
2019-02-23T08:30:44.432Z,3.53
2019-02-23T08:33:13.188Z,3.50
2019-02-23T08:35:42.206Z,3.77
2019-02-23T08:38:10.946Z,2.93
2019-02-23T08:40:39.645Z,3.50
2019-02-23T08:43:08.486Z,3.53
2019-02-23T08:45:37.289Z,3.60
2019-02-23T08:48:06.053Z,3.20
2019-02-23T08:50:34.848Z,3.70
2019-02-23T08:53:03.556Z,3.73
2019-02-23T08:55:32.473Z,3.37
2019-02-23T08:58:01.246Z,3.50
2019-02-23T09:00:30.040Z,3.33
2019-02-23T09:02:58.862Z,4.10
2019-02-23T09:05:27.724Z,3.77
2019-02-23T09:07:56.632Z,3.57
2019-02-23T09:10:25.380Z,3.30
2019-02-23T09:12:54.184Z,3.33
2019-02-23T09:15:22.998Z,3.50
2019-02-23T09:17:51.810Z,3.73
2019-02-23T09:20:28.559Z,3.43
2019-02-23T09:22:59.807Z,3.30
2019-02-23T09:25:21.464Z,3.50
2019-02-23T09:27:50.295Z,3.30
2019-02-23T09:30:19.080Z,3.43
2019-02-23T09:32:47.911Z,3.00
2019-02-23T09:35:16.698Z,3.03
2019-02-23T09:37:45.416Z,2.97
2019-02-23T09:40:14.207Z,3.27
2019-02-23T09:42:43.036Z,3.13
2019-02-23T09:45:11.772Z,2.97
2019-02-23T09:47:40.513Z,3.33
2019-02-23T09:50:09.360Z,3.13
2019-02-23T09:52:38.104Z,3.03
2019-02-23T09:55:07.009Z,2.60
2019-02-23T09:57:35.844Z,2.60
2019-02-23T10:00:07.697Z,2.60
2019-02-23T10:02:36.420Z,1.90
2019-02-23T10:05:06.352Z,3.20
2019-02-23T10:07:35.094Z,3.10
2019-02-23T10:10:04.161Z,2.60
2019-02-23T10:12:33.172Z,3.00
2019-02-23T10:15:02.292Z,2.33
2019-02-23T10:17:31.212Z,3.47
2019-02-23T10:19:59.989Z,3.60
2019-02-23T10:22:28.791Z,2.87
2019-02-23T10:24:57.614Z,3.20
2019-02-23T10:27:26.360Z,3.50
2019-02-23T10:29:55.149Z,2.37
2019-02-23T10:32:23.946Z,2.50
2019-02-23T10:34:52.811Z,3.40
2019-02-23T10:37:21.661Z,2.90
2019-02-23T10:39:50.405Z,2.80
2019-02-23T10:42:20.510Z,2.30
2019-02-23T10:44:49.266Z,3.30
2019-02-23T10:47:18.037Z,2.90
2019-02-23T10:49:46.946Z,3.13
2019-02-23T10:52:16.946Z,2.70
2019-02-23T10:54:47.188Z,2.93
2019-02-23T10:57:16.213Z,2.90
2019-02-23T10:59:45.055Z,3.10
2019-02-23T11:02:14.366Z,3.47
2019-02-23T11:04:43.112Z,2.83
2019-02-23T11:07:11.853Z,3.50
2019-02-23T11:09:42.928Z,3.83
2019-02-23T11:12:11.800Z,3.17
2019-02-23T11:14:40.575Z,3.33
2019-02-23T11:17:09.444Z,3.10
2019-02-23T11:19:38.214Z,3.53
2019-02-23T11:22:07.070Z,3.43
2019-02-23T11:24:36.385Z,3.70
2019-02-23T11:27:05.251Z,3.40
2019-02-23T11:29:35.599Z,3.47
2019-02-23T11:32:04.448Z,3.03
2019-02-23T11:34:36.064Z,3.13
2019-02-23T11:37:04.944Z,3.00
2019-02-23T11:39:33.676Z,3.20
2019-02-23T11:42:03.537Z,3.03
2019-02-23T11:44:32.280Z,3.80
2019-02-23T11:47:01.044Z,3.87
2019-02-23T11:49:29.838Z,3.30
2019-02-23T11:51:58.680Z,3.00
2019-02-23T11:54:27.442Z,3.83
2019-02-23T11:56:56.255Z,2.97
2019-02-23T11:59:24.984Z,2.90
2019-02-23T12:01:53.899Z,3.17
2019-02-23T12:04:22.662Z,3.43
2019-02-23T12:06:51.498Z,3.60
2019-02-23T12:09:20.310Z,2.80
2019-02-23T12:11:49.072Z,3.60
2019-02-23T12:14:17.863Z,3.70
2019-02-23T12:16:46.650Z,3.63
2019-02-23T12:19:15.406Z,3.40
2019-02-23T12:21:44.116Z,4.30
2019-02-23T12:24:12.864Z,4.23
2019-02-23T12:26:41.684Z,4.80
2019-02-23T12:29:10.390Z,4.37
2019-02-23T12:31:42.353Z,4.70
2019-02-23T12:34:13.341Z,4.90
2019-02-23T12:36:42.243Z,4.17
2019-02-23T12:39:11.009Z,4.83
2019-02-23T12:41:39.760Z,4.30
2019-02-23T12:44:08.579Z,4.30
2019-02-23T12:46:39.274Z,3.93
2019-02-23T12:49:08.060Z,3.80
2019-02-23T12:51:36.813Z,3.60
2019-02-23T12:54:16.366Z,3.47
2019-02-23T12:56:36.266Z,3.63
2019-02-23T12:59:05.078Z,3.00
2019-02-23T13:01:33.912Z,3.50
2019-02-23T13:04:02.626Z,3.20
2019-02-23T13:06:31.419Z,3.63
2019-02-23T13:09:16.209Z,3.20
2019-02-23T13:11:52.769Z,3.60
2019-02-23T13:14:46.753Z,3.50
2019-02-23T13:17:34.602Z,3.63
2019-02-23T13:20:19.907Z,3.27
2019-02-23T13:23:04.238Z,3.30
2019-02-23T13:25:40.175Z,3.60
2019-02-23T13:28:28.037Z,3.33
2019-02-23T13:31:15.006Z,3.70
2019-02-23T13:34:00.671Z,3.53
2019-02-23T13:36:45.788Z,2.93
2019-02-23T13:39:26.714Z,3.33
2019-02-23T13:42:08.948Z,3.10
2019-02-23T13:44:46.027Z,3.40
2019-02-23T13:47:42.962Z,3.30
2019-02-23T13:50:33.940Z,2.87
2019-02-23T13:53:20.428Z,3.47
2019-02-23T13:56:14.694Z,2.97
2019-02-23T13:58:47.807Z,3.57
2019-02-23T14:01:31.584Z,3.83
2019-02-23T14:04:23.697Z,3.60
2019-02-23T14:06:56.967Z,3.43
2019-02-23T14:09:44.919Z,3.67
2019-02-23T14:12:31.453Z,3.83
2019-02-23T14:15:22.185Z,3.47
2019-02-23T14:18:13.301Z,3.60
2019-02-23T14:20:51.202Z,3.83
2019-02-23T14:23:57.164Z,3.43
2019-02-23T14:26:44.078Z,3.73
2019-02-23T14:29:37.891Z,3.40
2019-02-23T14:32:38.142Z,3.60
2019-02-23T14:35:28.779Z,3.47
2019-02-23T14:38:07.790Z,3.70
2019-02-23T14:40:49.599Z,3.70
2019-02-23T14:43:37.534Z,3.87
2019-02-23T14:46:28.213Z,3.60
2019-02-23T14:49:18.927Z,3.50
2019-02-23T14:51:54.053Z,3.37
2019-02-23T14:54:41.985Z,3.93
2019-02-23T14:57:28.879Z,3.53
2019-02-23T15:00:17.185Z,3.80
2019-02-23T15:02:56.531Z,4.40
2019-02-23T15:05:53.504Z,3.80
2019-02-23T15:08:28.468Z,3.90
2019-02-23T15:11:25.669Z,4.20
2019-02-23T15:14:06.828Z,4.30
2019-02-23T15:16:51.122Z,4.40
2019-02-23T15:19:37.263Z,4.17
2019-02-23T15:22:24.138Z,4.07
2019-02-23T15:25:13.160Z,4.30
2019-02-23T15:27:57.369Z,3.50
2019-02-23T15:30:34.587Z,4.03
2019-02-23T15:33:22.222Z,4.20
2019-02-23T15:36:11.782Z,3.60
2019-02-23T15:39:05.688Z,3.70
2019-02-23T15:41:46.077Z,4.50
2019-02-23T15:44:25.602Z,3.47
2019-02-23T15:47:09.446Z,3.77
2019-02-23T15:49:38.265Z,3.60
2019-02-23T15:52:07.771Z,3.93
2019-02-23T15:54:36.590Z,3.67
2019-02-23T15:57:05.435Z,3.67
2019-02-23T15:59:34.144Z,3.70
2019-02-23T16:02:02.967Z,4.13
2019-02-23T16:04:31.739Z,4.10
2019-02-23T16:07:00.556Z,3.60
2019-02-23T16:09:29.368Z,3.70
2019-02-23T16:11:58.107Z,3.70
2019-02-23T16:14:26.832Z,3.40
2019-02-23T16:16:55.571Z,3.70
2019-02-23T16:19:24.330Z,3.40
2019-02-23T16:21:53.210Z,3.67
2019-02-23T16:24:22.115Z,3.67
2019-02-23T16:26:50.979Z,3.80
2019-02-23T16:29:22.969Z,3.67
2019-02-23T16:31:51.879Z,3.07
2019-02-23T16:34:22.193Z,3.40
2019-02-23T16:37:06.543Z,4.03
2019-02-23T16:39:40.601Z,4.40
2019-02-23T16:42:09.084Z,3.70
2019-02-23T16:44:41.576Z,3.20
2019-02-23T16:47:10.465Z,3.87
2019-02-23T16:49:39.284Z,4.27
2019-02-23T16:52:09.298Z,3.83
2019-02-23T16:54:38.263Z,4.13
2019-02-23T16:57:07.094Z,4.00
2019-02-23T16:59:35.955Z,3.77
2019-02-23T17:02:04.788Z,3.93
2019-02-23T17:04:33.527Z,4.07
2019-02-23T17:07:02.378Z,3.93
2019-02-23T17:09:31.177Z,4.00
2019-02-23T17:12:01.887Z,3.97
2019-02-23T17:14:30.473Z,3.97
2019-02-23T17:16:59.363Z,8.20
2019-02-23T17:19:28.372Z,5.63
2019-02-23T17:21:57.142Z,5.10
2019-02-23T17:24:28.002Z,3.80
2019-02-23T17:26:56.827Z,5.20
2019-02-23T17:29:27.459Z,4.67
2019-02-23T17:31:56.345Z,4.43
2019-02-23T17:34:25.139Z,4.90
2019-02-23T17:36:55.100Z,5.20
2019-02-23T17:39:23.914Z,4.67
2019-02-23T17:41:54.636Z,4.30
2019-02-23T17:44:25.954Z,4.87
2019-02-23T17:46:54.748Z,5.10
2019-02-23T17:49:23.759Z,5.27
2019-02-23T17:51:54.725Z,5.10
2019-02-23T17:54:27.617Z,4.37
2019-02-23T17:56:56.450Z,4.03
2019-02-23T17:59:25.284Z,4.07
2019-02-23T18:01:54.124Z,4.77
2019-02-23T18:04:23.032Z,5.17
2019-02-23T18:06:51.946Z,4.97
2019-02-23T18:09:22.501Z,4.93
2019-02-23T18:11:52.447Z,5.17
2019-02-23T18:14:24.073Z,4.90
2019-02-23T18:16:53.042Z,3.43
2019-02-23T18:19:21.853Z,4.30
2019-02-23T18:21:52.861Z,4.30
2019-02-23T18:24:21.702Z,4.07
2019-02-23T18:26:50.483Z,4.27
2019-02-23T18:29:19.273Z,4.50
2019-02-23T18:31:48.137Z,4.27
2019-02-23T18:34:21.783Z,3.93
2019-02-23T18:37:11.266Z,4.37
2019-02-23T18:39:40.209Z,3.63
2019-02-23T18:42:09.065Z,4.47
2019-02-23T18:44:37.994Z,3.90
2019-02-23T18:47:06.835Z,4.20
2019-02-23T18:49:38.647Z,3.77
2019-02-23T18:52:07.532Z,3.80
2019-02-23T18:54:36.435Z,4.00
2019-02-23T18:57:05.248Z,4.20
2019-02-23T18:59:34.513Z,4.47
2019-02-23T19:02:03.351Z,4.00
2019-02-23T19:04:42.100Z,4.20
2019-02-23T19:07:12.424Z,4.17
2019-02-23T19:09:42.325Z,4.20
2019-02-23T19:12:11.167Z,3.90
2019-02-23T19:14:39.988Z,3.67
2019-02-23T19:17:08.798Z,3.83
2019-02-23T19:19:37.703Z,4.33
2019-02-23T19:22:06.473Z,4.07
2019-02-23T19:24:35.297Z,4.30
2019-02-23T19:27:04.062Z,4.83
2019-02-23T19:29:32.833Z,4.33
2019-02-23T19:32:01.737Z,4.47
2019-02-23T19:34:30.548Z,4.33
2019-02-23T19:36:59.445Z,4.40
2019-02-23T19:39:28.315Z,4.03
2019-02-23T19:41:57.143Z,4.03
2019-02-23T19:44:25.984Z,4.57
2019-02-23T19:46:57.172Z,4.20
2019-02-23T19:49:26.088Z,4.07
2019-02-23T19:51:56.582Z,4.10
2019-02-23T19:54:25.543Z,4.20
2019-02-23T19:56:54.349Z,4.90
2019-02-23T19:59:23.114Z,4.50
2019-02-23T20:01:52.018Z,4.63
2019-02-23T20:04:21.836Z,5.23
2019-02-23T20:06:50.732Z,4.93
2019-02-23T20:09:19.607Z,4.60
2019-02-23T20:11:48.495Z,4.07
2019-02-23T20:14:19.911Z,3.50
2019-02-23T20:16:48.739Z,4.30
2019-02-23T20:19:20.711Z,4.23
2019-02-23T20:21:49.631Z,4.33
2019-02-23T20:24:18.551Z,3.97
2019-02-23T20:26:55.202Z,3.97
2019-02-23T20:29:20.894Z,3.80
2019-02-23T20:31:49.888Z,4.77
2019-02-23T20:34:18.724Z,4.43
2019-02-23T20:36:47.583Z,4.37
2019-02-23T20:39:16.680Z,4.43
2019-02-23T20:42:04.964Z,4.47
2019-02-23T20:44:34.828Z,3.93
2019-02-23T20:47:03.676Z,3.80
2019-02-23T20:49:32.505Z,4.67
2019-02-23T20:52:01.334Z,4.17
2019-02-23T20:54:30.640Z,4.17
2019-02-23T20:57:05.284Z,3.73
2019-02-23T20:59:29.936Z,5.00
2019-02-23T21:01:58.790Z,4.37
2019-02-23T21:04:27.597Z,4.67
2019-02-23T21:06:56.447Z,4.77
2019-02-23T21:09:26.487Z,4.40
2019-02-23T21:11:55.285Z,4.53
2019-02-23T21:14:24.097Z,4.60
2019-02-23T21:16:52.941Z,4.93
2019-02-23T21:19:21.793Z,4.73
2019-02-23T21:21:50.671Z,4.77
2019-02-23T21:24:22.316Z,4.43
2019-02-23T21:26:51.148Z,5.40
2019-02-23T21:29:19.929Z,4.63
2019-02-23T21:31:48.763Z,4.87
2019-02-23T21:34:18.804Z,4.83
2019-02-23T21:36:47.635Z,5.30
2019-02-23T21:39:19.448Z,5.23
2019-02-23T21:41:48.278Z,5.10
2019-02-23T21:44:17.249Z,5.47
2019-02-23T21:46:46.019Z,4.83
2019-02-23T21:49:14.836Z,4.70
2019-02-23T21:51:43.655Z,4.87
2019-02-23T21:54:12.505Z,5.50
2019-02-23T21:56:41.278Z,5.40
2019-02-23T21:59:10.069Z,5.27
2019-02-23T22:01:38.880Z,5.03
2019-02-23T22:04:07.715Z,5.50
2019-02-23T22:06:36.507Z,5.67
2019-02-23T22:09:06.103Z,4.50
2019-02-23T22:11:34.869Z,5.13
2019-02-23T22:14:03.626Z,5.60
2019-02-23T22:16:32.400Z,5.27
2019-02-23T22:19:01.253Z,5.40
2019-02-23T22:21:30.038Z,4.73
2019-02-23T22:23:58.838Z,4.97
2019-02-23T22:26:27.592Z,5.27
2019-02-23T22:28:56.359Z,5.40
2019-02-23T22:31:25.053Z,5.50
2019-02-23T22:33:53.814Z,5.03
2019-02-23T22:36:22.587Z,5.60
2019-02-23T22:38:51.295Z,5.50
2019-02-23T22:41:20.039Z,5.10
2019-02-23T22:43:48.874Z,5.67
2019-02-23T22:46:17.605Z,5.47
2019-02-23T22:48:46.294Z,5.47
2019-02-23T22:51:14.999Z,5.03
2019-02-23T22:53:43.781Z,5.17
2019-02-23T22:56:12.552Z,5.20
2019-02-23T22:58:41.257Z,4.47
2019-02-23T23:01:10.548Z,4.93
2019-02-23T23:03:39.333Z,4.23
2019-02-23T23:06:08.090Z,5.47
2019-02-23T23:08:36.786Z,5.73
2019-02-23T23:11:05.706Z,5.90
2019-02-23T23:13:46.459Z,5.97
2019-02-23T23:16:15.122Z,5.27
2019-02-23T23:18:44.020Z,5.50
2019-02-23T23:21:12.713Z,4.90
2019-02-23T23:23:41.439Z,4.70
2019-02-23T23:26:11.583Z,5.23
2019-02-23T23:28:40.591Z,5.30
2019-02-23T23:31:09.277Z,5.77
2019-02-23T23:33:37.982Z,5.20
2019-02-23T23:36:06.676Z,5.20
2019-02-23T23:38:35.422Z,5.00
2019-02-23T23:41:04.080Z,5.67
2019-02-23T23:43:32.934Z,5.97
2019-02-23T23:46:01.805Z,5.53
2019-02-23T23:48:30.475Z,6.00
2019-02-23T23:50:59.195Z,5.93
2019-02-23T23:53:27.874Z,5.57
2019-02-23T23:55:56.579Z,5.87
2019-02-23T23:58:25.223Z,5.27
